Search for airport 
image banner adimage banner adimage banner ad
image banner ad

D63 - Dinsmore

Located in Dinsmore, United States

ICAO - D63, IATA -

Data provided by Airmate  

General information

Coordinates: N40°29'31" W123°35'54"
Elevation is 2375 feet MSL.
Magnetic variation is 17° East
View others Airports in California

Operational data

Special qualification required
Current time UTC:
Current local time:
Weather at : KFOT - Rohnerville ( 46 km )
METAR: KFOT 221350Z AUTO 00000KT 3/4SM OVC002 10/10 A2992 RMK AO1
View NOTAMs / SUP AIP / TFR affecting this airport [VIEW]
Communications frequencies: [VIEW]

Runways:

RWY identifierQFULength (ft)Width (ft)SurfaceLDA (ft)
09251048ASPH
27251048ASPH

Airport contact information

Address: Dinsmore United States

Satellite view of D63